Time;durP1;ratioP1;P1;durP2;ratioP2;P2;SDS_P1;SDS_P2;PMS_P1;PMS_P2;Temp;Humidity;BMP_temperature;BMP_pressure;BME280_temperature;BME280_humidity;BME280_pressure;Samples;Min_cycle;Max_cycle;Signal;HPM_P1;HPM_P2
2021/06/21 00:00:14;;;;;;;18.43;2.00;;;;;;;15.44;nan;95793.91;3531896;40;20728;-72
2021/06/21 00:02:43;;;;;;;6.77;1.73;;;;;;;15.32;nan;95797.78;3526308;40;20513;-73
2021/06/21 00:05:12;;;;;;;16.73;2.57;;;;;;;15.34;nan;95799.28;3519725;40;20479;-73
2021/06/21 00:07:40;;;;;;;14.03;3.00;;;;;;;15.34;nan;95809.03;3530818;40;20927;-73
2021/06/21 00:10:11;;;;;;;5.97;2.27;;;;;;;15.35;nan;95806.22;3529533;40;20826;-73
2021/06/21 00:12:41;;;;;;;15.47;2.43;;;;;;;15.36;nan;95812.31;3530182;40;20452;-73
2021/06/21 00:15:13;;;;;;;10.10;2.30;;;;;;;15.32;nan;95806.53;3528652;40;20578;-74
2021/06/21 00:17:41;;;;;;;12.97;3.13;;;;;;;15.23;nan;95807.47;3529987;40;20754;-72
2021/06/21 00:20:10;;;;;;;10.93;1.87;;;;;;;15.29;nan;95804.22;3528169;40;20469;-73
2021/06/21 00:22:38;;;;;;;16.40;2.20;;;;;;;15.25;nan;95799.38;3521726;40;20853;-74
2021/06/21 00:25:07;;;;;;;10.40;2.17;;;;;;;15.16;nan;95786.13;3528124;40;20778;-73
2021/06/21 00:27:35;;;;;;;14.97;3.10;;;;;;;15.24;nan;95793.28;3528983;40;20820;-73
2021/06/21 00:30:03;;;;;;;18.80;3.23;;;;;;;15.22;nan;95796.06;3529019;40;20555;-73
2021/06/21 00:32:33;;;;;;;16.20;3.13;;;;;;;15.26;nan;95807.16;3531111;40;20597;-72
2021/06/21 00:35:01;;;;;;;6.93;2.73;;;;;;;15.35;nan;95815.97;3531296;40;20460;-74
2021/06/21 00:37:29;;;;;;;12.13;2.50;;;;;;;15.38;nan;95815.63;3523883;40;20614;-74
2021/06/21 00:39:57;;;;;;;13.20;2.20;;;;;;;15.43;nan;95823.94;3529856;40;20465;-74
2021/06/21 00:42:25;;;;;;;8.20;1.90;;;;;;;15.41;nan;95816.16;3520992;40;20714;-73
2021/06/21 00:44:53;;;;;;;24.10;2.17;;;;;;;15.37;nan;95806.91;3521141;40;20527;-73
2021/06/21 00:47:21;;;;;;;9.03;3.30;;;;;;;15.35;nan;95819.41;3521110;40;20791;-73
2021/06/21 00:49:50;;;;;;;16.13;3.00;;;;;;;15.33;nan;95817.94;3531439;40;20856;-72
2021/06/21 00:52:21;;;;;;;11.60;3.37;;;;;;;15.27;nan;95829.06;3527919;40;21157;-73
2021/06/21 00:54:59;;;;;;;15.17;2.10;;;;;;;15.35;nan;95826.50;3529697;40;20461;-73
2021/06/21 00:57:28;;;;;;;9.00;2.53;;;;;;;15.36;nan;95820.25;3529699;40;20482;-73
2021/06/21 00:59:58;;;;;;;10.67;2.27;;;;;;;15.36;nan;95828.16;3526796;40;20496;-73
2021/06/21 01:02:27;;;;;;;7.90;2.40;;;;;;;15.38;nan;95813.81;3523444;40;20777;-73
2021/06/21 01:04:57;;;;;;;14.67;2.80;;;;;;;15.38;nan;95807.72;3528982;40;20846;-73
2021/06/21 01:07:25;;;;;;;9.00;2.00;;;;;;;15.46;nan;95802.50;3529856;40;20456;-73
2021/06/21 01:09:55;;;;;;;13.57;2.13;;;;;;;15.46;nan;95814.88;3528894;40;20987;-73
2021/06/21 01:12:37;;;;;;;8.60;2.03;;;;;;;15.44;nan;95820.28;3527138;40;20688;-73
2021/06/21 01:15:08;;;;;;;14.30;2.30;;;;;;;15.44;nan;95807.09;3517517;40;20497;-73
2021/06/21 01:17:44;;;;;;;18.70;2.80;;;;;;;15.45;nan;95803.50;3530773;40;20830;-72
2021/06/21 01:20:33;;;;;;;10.77;1.90;;;;;;;15.47;nan;95804.16;3526045;40;21002;-73
2021/06/21 01:23:45;;;;;;;14.37;2.23;;;;;;;15.38;nan;95811.19;3528671;40;20456;-73
2021/06/21 01:26:17;;;;;;;13.23;2.63;;;;;;;15.40;nan;95803.13;3528742;40;20465;-72
2021/06/21 01:28:59;;;;;;;11.03;1.63;;;;;;;15.37;nan;95819.28;3529309;40;20929;-73
2021/06/21 01:31:45;;;;;;;11.93;2.10;;;;;;;15.33;nan;95808.19;3529286;40;21157;-73
2021/06/21 01:34:16;;;;;;;8.30;1.57;;;;;;;15.35;nan;95805.41;3527880;40;20890;-73
2021/06/21 01:36:48;;;;;;;19.00;2.37;;;;;;;15.35;nan;95805.41;3529240;40;20539;-73
2021/06/21 01:39:16;;;;;;;11.93;2.20;;;;;;;15.38;nan;95807.72;3527014;40;20485;-73
2021/06/21 01:41:46;;;;;;;8.73;2.40;;;;;;;15.22;nan;95797.88;3529578;40;20546;-73
2021/06/21 01:44:17;;;;;;;12.27;2.00;;;;;;;15.32;nan;95805.72;3527812;40;20894;-73
2021/06/21 01:46:47;;;;;;;9.73;2.00;;;;;;;15.22;nan;95803.97;3529167;40;20915;-73
2021/06/21 01:49:30;;;;;;;9.80;2.20;;;;;;;15.20;nan;95805.13;3517068;40;20485;-74
2021/06/21 01:52:01;;;;;;;4.80;1.90;;;;;;;15.13;nan;95797.00;3527094;40;20457;-73
2021/06/21 01:54:31;;;;;;;8.50;1.80;;;;;;;15.14;nan;95797.84;3527827;40;20818;-73
2021/06/21 01:57:03;;;;;;;7.13;2.30;;;;;;;15.01;nan;95785.03;3529145;40;20444;-74
2021/06/21 01:59:31;;;;;;;7.90;1.70;;;;;;;15.03;nan;95791.81;3526466;40;20867;-73
2021/06/21 02:02:01;;;;;;;7.93;2.10;;;;;;;15.02;nan;95797.25;3521245;40;21166;-73
2021/06/21 02:04:34;;;;;;;22.40;2.03;;;;;;;14.92;nan;95785.97;3528536;40;20456;-73
2021/06/21 02:07:03;;;;;;;17.63;2.40;;;;;;;15.08;nan;95804.53;3527387;40;20461;-73
2021/06/21 02:09:32;;;;;;;13.37;1.90;;;;;;;15.15;nan;95808.22;3527844;40;20480;-73
2021/06/21 02:12:01;;;;;;;13.90;2.57;;;;;;;15.12;nan;95808.53;3527481;40;20855;-73
2021/06/21 02:14:31;;;;;;;7.73;1.60;;;;;;;15.18;nan;95807.91;3529630;40;20540;-74
2021/06/21 02:17:00;;;;;;;9.30;2.53;;;;;;;15.21;nan;95810.25;3527596;40;20465;-73
2021/06/21 02:19:32;;;;;;;10.97;2.30;;;;;;;15.21;nan;95809.41;3527093;40;20490;-73
2021/06/21 02:22:01;;;;;;;8.20;1.83;;;;;;;15.13;nan;95802.28;3530603;40;20472;-72
2021/06/21 02:24:30;;;;;;;9.03;2.10;;;;;;;15.19;nan;95798.19;3526982;40;20558;-74
2021/06/21 02:26:59;;;;;;;14.13;1.90;;;;;;;15.15;nan;95792.41;3526261;40;20788;-73
2021/06/21 02:29:28;;;;;;;8.17;1.97;;;;;;;15.09;nan;95794.81;3528316;40;20861;-73
2021/06/21 02:31:56;;;;;;;21.97;2.90;;;;;;;15.08;nan;95793.16;3528183;40;20538;-74
2021/06/21 02:34:25;;;;;;;8.20;2.43;;;;;;;15.06;nan;95805.69;3518480;40;20472;-73
2021/06/21 02:36:54;;;;;;;12.73;2.37;;;;;;;15.10;nan;95813.13;3527932;40;20923;-73
2021/06/21 02:39:22;;;;;;;11.33;2.27;;;;;;;15.17;nan;95801.00;3529695;40;20853;-73
2021/06/21 02:41:50;;;;;;;13.03;2.17;;;;;;;15.20;nan;95800.66;3527916;40;20842;-73
2021/06/21 02:44:18;;;;;;;5.23;1.80;;;;;;;15.24;nan;95809.09;3525900;40;20978;-73
2021/06/21 02:46:46;;;;;;;14.80;2.40;;;;;;;15.19;nan;95803.47;3518508;40;20505;-73
2021/06/21 02:49:14;;;;;;;9.33;1.70;;;;;;;15.33;nan;95810.84;3527422;40;20818;-74
2021/06/21 02:51:45;;;;;;;12.93;2.97;;;;;;;15.44;nan;95799.19;3528936;40;20509;-74
2021/06/21 02:54:22;;;;;;;11.30;2.40;;;;;;;15.34;nan;95793.19;3527719;40;20540;-73
2021/06/21 02:57:03;;;;;;;7.97;2.10;;;;;;;15.37;nan;95779.72;3528111;40;20664;-73
2021/06/21 02:59:37;;;;;;;15.00;3.10;;;;;;;15.16;nan;95772.94;3515940;40;20469;-73
2021/06/21 03:02:07;;;;;;;8.27;2.20;;;;;;;15.31;nan;95782.94;3520444;40;20842;-72
2021/06/21 03:04:39;;;;;;;7.80;1.53;;;;;;;15.41;nan;95795.06;3526490;40;20558;-73
2021/06/21 03:07:08;;;;;;;16.63;2.20;;;;;;;15.41;nan;95788.97;3528470;40;20808;-74
2021/06/21 03:09:40;;;;;;;12.73;1.50;;;;;;;15.49;nan;95785.56;3528433;40;21022;-73
2021/06/21 03:12:09;;;;;;;15.10;2.93;;;;;;;15.50;nan;95787.19;3529037;40;20761;-73
2021/06/21 03:14:43;;;;;;;10.97;2.10;;;;;;;15.50;nan;95777.44;3521252;40;20881;-73
2021/06/21 03:17:12;;;;;;;9.07;2.03;;;;;;;15.51;nan;95773.84;3530738;40;20497;-74
2021/06/21 03:19:43;;;;;;;9.20;1.93;;;;;;;15.60;nan;95778.19;3525152;40;20782;-74
2021/06/21 03:22:11;;;;;;;12.10;2.27;;;;;;;15.63;nan;95782.31;3529806;40;20561;-73
2021/06/21 03:24:41;;;;;;;13.37;1.93;;;;;;;15.64;nan;95770.78;3533274;40;20481;-73
2021/06/21 03:27:09;;;;;;;11.87;2.00;;;;;;;15.47;nan;95798.88;3529611;40;20525;-73
2021/06/21 03:29:37;;;;;;;8.53;2.57;;;;;;;15.28;nan;95820.19;3527151;40;20848;-73
2021/06/21 03:32:25;;;;;;;7.60;1.23;;;;;;;15.28;nan;95833.38;3527903;40;20915;-73
2021/06/21 03:34:55;;;;;;;8.20;1.43;;;;;;;15.37;nan;95840.38;3530889;40;21143;-72
2021/06/21 03:37:23;;;;;;;12.83;1.77;;;;;;;15.42;nan;95843.38;3528073;40;20537;-73
2021/06/21 03:39:52;;;;;;;12.90;1.90;;;;;;;15.48;nan;95832.19;3528301;40;20465;-73
2021/06/21 03:42:21;;;;;;;8.33;2.00;;;;;;;15.58;nan;95826.81;3527964;40;20496;-74
2021/06/21 03:44:49;;;;;;;12.67;2.00;;;;;;;15.48;nan;95826.91;3528346;40;20562;-74
2021/06/21 03:47:18;;;;;;;14.93;2.70;;;;;;;15.47;nan;95824.44;3520797;40;20509;-73
2021/06/21 03:49:47;;;;;;;10.90;1.87;;;;;;;15.45;nan;95819.31;3528617;40;20748;-73
2021/06/21 03:52:16;;;;;;;11.90;2.00;;;;;;;15.50;nan;95824.13;3526091;40;20852;-73
2021/06/21 03:54:44;;;;;;;16.53;1.73;;;;;;;15.52;nan;95825.63;3526904;40;20550;-72
2021/06/21 03:57:13;;;;;;;14.80;1.60;;;;;;;15.53;nan;95829.94;3527826;40;20944;-72
2021/06/21 03:59:41;;;;;;;11.60;2.47;;;;;;;15.50;nan;95824.94;3528627;40;20946;-73
2021/06/21 04:02:09;;;;;;;13.93;1.80;;;;;;;15.49;nan;95828.59;3519263;40;20473;-74
2021/06/21 04:04:37;;;;;;;9.53;2.27;;;;;;;15.47;nan;95827.09;3528969;40;20934;-74
2021/06/21 04:07:06;;;;;;;7.13;1.60;;;;;;;15.42;nan;95830.16;3528750;40;20900;-73
2021/06/21 04:09:34;;;;;;;18.00;1.90;;;;;;;15.42;nan;95815.16;3527395;40;20925;-77
2021/06/21 04:12:02;;;;;;;12.77;1.50;;;;;;;15.53;nan;95823.84;3527896;40;20743;-76
2021/06/21 04:14:32;;;;;;;9.73;2.37;;;;;;;15.47;nan;95824.44;3511454;40;20462;-75
2021/06/21 04:17:02;;;;;;;4.93;1.80;;;;;;;15.47;nan;95825.28;3532119;40;20802;-74
2021/06/21 04:19:30;;;;;;;4.60;2.03;;;;;;;15.45;nan;95829.88;3531511;40;21147;-75
2021/06/21 04:21:58;;;;;;;7.67;2.47;;;;;;;15.41;nan;95833.81;3520468;40;20477;-73
2021/06/21 04:24:26;;;;;;;8.50;2.20;;;;;;;15.36;nan;95828.16;3529410;40;20498;-74
2021/06/21 04:26:53;;;;;;;14.67;1.80;;;;;;;15.43;nan;95850.31;3530185;40;20494;-75
2021/06/21 04:29:23;;;;;;;9.73;1.60;;;;;;;15.57;nan;95830.44;3519963;40;20484;-75
2021/06/21 04:31:52;;;;;;;7.23;1.70;;;;;;;15.69;nan;95836.31;3519750;40;20723;-74
2021/06/21 04:34:21;;;;;;;15.30;2.33;;;;;;;15.76;nan;95837.38;3529715;40;20767;-73
2021/06/21 04:36:48;;;;;;;11.87;2.10;;;;;;;15.77;nan;95836.38;3530976;40;20853;-75
2021/06/21 04:39:16;;;;;;;19.60;2.33;;;;;;;15.81;nan;95830.63;3534488;40;20502;-75
2021/06/21 04:41:44;;;;;;;10.77;1.53;;;;;;;15.90;nan;95825.41;3535655;40;20532;-74
2021/06/21 04:44:13;;;;;;;13.80;2.53;;;;;;;15.95;nan;95823.91;3530555;40;20479;-74
2021/06/21 04:46:42;;;;;;;10.80;2.03;;;;;;;15.94;nan;95821.47;3529216;40;20474;-73
2021/06/21 04:49:13;;;;;;;6.10;1.67;;;;;;;15.93;nan;95820.63;3528431;40;20844;-73
2021/06/21 04:51:42;;;;;;;7.97;2.13;;;;;;;15.93;nan;95825.88;3529205;40;20931;-72
2021/06/21 04:54:10;;;;;;;11.23;2.17;;;;;;;15.94;nan;95826.75;3528260;40;20482;-72
2021/06/21 04:56:39;;;;;;;5.27;1.57;;;;;;;15.99;nan;95833.22;3529039;40;20748;-71
2021/06/21 04:59:07;;;;;;;12.70;2.00;;;;;;;16.04;nan;95837.19;3531533;40;20574;-73
2021/06/21 05:01:35;;;;;;;9.50;1.63;;;;;;;16.06;nan;95841.31;3529508;40;20920;-73
2021/06/21 05:04:04;;;;;;;6.90;1.80;;;;;;;16.11;nan;95849.59;3529981;40;20764;-73
2021/06/21 05:06:35;;;;;;;18.20;2.27;;;;;;;16.17;nan;95845.47;3531149;40;20795;-72
2021/06/21 05:09:05;;;;;;;6.07;1.47;;;;;;;16.14;nan;95849.28;3520506;40;20798;-73
2021/06/21 05:11:33;;;;;;;12.33;2.50;;;;;;;16.23;nan;95855.44;3529548;40;20547;-73
2021/06/21 05:14:01;;;;;;;18.03;2.07;;;;;;;16.32;nan;95848.34;3531021;40;20765;-72
2021/06/21 05:16:29;;;;;;;7.13;1.43;;;;;;;16.45;nan;95861.13;3521335;40;20473;-73
2021/06/21 05:18:57;;;;;;;4.63;1.90;;;;;;;16.54;nan;95861.00;3528669;40;20807;-72
2021/06/21 05:21:25;;;;;;;16.77;2.53;;;;;;;16.47;nan;95848.59;3529392;40;20851;-71
2021/06/21 05:23:54;;;;;;;10.83;1.90;;;;;;;16.97;nan;95868.88;3529599;40;20520;-72
2021/06/21 05:26:22;;;;;;;10.13;2.30;;;;;;;17.00;nan;95861.47;3530448;40;20473;-71
2021/06/21 05:28:50;;;;;;;22.67;2.03;;;;;;;16.86;nan;95854.16;3531413;40;20510;-73
2021/06/21 05:31:18;;;;;;;13.73;2.20;;;;;;;16.73;nan;95851.94;3533043;40;20535;-75
2021/06/21 05:33:47;;;;;;;4.17;1.90;;;;;;;16.61;nan;95846.13;3531264;40;20493;-71
2021/06/21 05:36:15;;;;;;;8.30;1.97;;;;;;;16.76;nan;95838.41;3529170;40;20560;-73
2021/06/21 05:38:43;;;;;;;16.70;1.83;;;;;;;16.83;nan;95857.13;3529719;40;20549;-72
2021/06/21 05:41:12;;;;;;;10.20;2.03;;;;;;;16.95;nan;95858.47;3531380;40;20431;-72
2021/06/21 05:43:40;;;;;;;13.13;1.60;;;;;;;16.92;nan;95863.28;3528924;40;20454;-71
2021/06/21 05:46:08;;;;;;;25.50;10.67;;;;;;;16.87;nan;95871.69;3527703;40;20983;-72
2021/06/21 05:48:36;;;;;;;29.50;15.00;;;;;;;16.84;nan;95871.16;3529778;40;20879;-72
2021/06/21 05:51:04;;;;;;;5.90;1.70;;;;;;;16.80;nan;95870.66;3530203;40;20458;-70
2021/06/21 05:53:33;;;;;;;9.00;1.60;;;;;;;16.84;nan;95861.44;3533144;40;20822;-72
2021/06/21 05:56:01;;;;;;;14.20;3.30;;;;;;;17.00;nan;95872.03;3532658;40;20462;-73
2021/06/21 05:58:31;;;;;;;9.80;1.57;;;;;;;17.11;nan;95864.78;3532418;40;20944;-74
2021/06/21 06:00:59;;;;;;;10.67;1.60;;;;;;;17.18;nan;95857.84;3529491;40;20824;-75
2021/06/21 06:03:26;;;;;;;8.50;1.60;;;;;;;17.44;nan;95859.50;3528514;40;20910;-75
2021/06/21 06:05:55;;;;;;;17.47;3.30;;;;;;;17.43;nan;95871.91;3529179;40;20861;-73
2021/06/21 06:08:23;;;;;;;5.53;1.70;;;;;;;17.58;nan;95859.66;3529188;40;20438;-76
2021/06/21 06:10:51;;;;;;;6.50;1.30;;;;;;;17.54;nan;95857.50;3529358;40;20607;-74
2021/06/21 06:13:20;;;;;;;7.77;2.10;;;;;;;17.49;nan;95859.84;3530350;40;20489;-74
2021/06/21 06:15:49;;;;;;;10.73;1.70;;;;;;;17.76;nan;95869.25;3522286;40;20459;-74
2021/06/21 06:18:17;;;;;;;11.80;1.77;;;;;;;17.91;nan;95869.41;3513633;40;20734;-74
2021/06/21 06:20:45;;;;;;;12.87;1.40;;;;;;;18.17;nan;95869.19;3528991;40;20766;-75
2021/06/21 06:23:32;;;;;;;8.60;1.73;;;;;;;18.05;nan;95875.81;3529673;40;20544;-75
2021/06/21 06:26:00;;;;;;;7.57;2.40;;;;;;;17.99;nan;95864.06;3519432;40;20477;-73
2021/06/21 06:28:28;;;;;;;12.10;2.10;;;;;;;18.19;nan;95864.53;3531929;40;20817;-75
2021/06/21 06:30:57;;;;;;;8.93;2.20;;;;;;;18.38;nan;95869.44;3529214;40;20549;-72
2021/06/21 06:33:25;;;;;;;17.23;1.87;;;;;;;18.39;nan;95867.59;3528822;40;20736;-72
2021/06/21 06:35:53;;;;;;;6.33;1.30;;;;;;;18.54;nan;95873.84;3522178;40;20493;-74
2021/06/21 06:38:21;;;;;;;8.30;1.60;;;;;;;18.94;nan;95881.78;3518343;40;20461;-72
2021/06/21 06:40:49;;;;;;;8.80;1.70;;;;;;;18.72;nan;95873.59;3529833;40;20849;-72
2021/06/21 06:43:18;;;;;;;11.97;2.23;;;;;;;18.78;nan;95878.19;3530586;40;20480;-72
2021/06/21 06:45:46;;;;;;;9.37;2.03;;;;;;;18.91;nan;95876.81;3528779;40;20485;-73
2021/06/21 06:48:15;;;;;;;7.27;1.83;;;;;;;18.90;nan;95888.44;3530794;40;20473;-73
2021/06/21 06:50:43;;;;;;;9.70;1.90;;;;;;;18.88;nan;95890.44;3532904;40;20928;-73
2021/06/21 06:53:12;;;;;;;8.47;1.80;;;;;;;19.01;nan;95893.34;3530791;40;20461;-72
2021/06/21 06:58:25;;;;;;;9.27;1.93;;;;;;;19.14;nan;95867.06;3527810;40;21102;-72
2021/06/21 07:00:53;;;;;;;8.53;1.50;;;;;;;19.34;nan;95882.50;3529602;40;20579;-73
2021/06/21 07:03:22;;;;;;;15.30;1.93;;;;;;;19.47;nan;95881.94;3528771;40;21109;-71
2021/06/21 07:05:50;;;;;;;11.30;2.00;;;;;;;19.55;nan;95881.84;3532391;40;20464;-72
2021/06/21 07:08:18;;;;;;;9.20;1.53;;;;;;;19.23;nan;95880.25;3533047;40;20562;-71
2021/06/21 07:10:49;;;;;;;12.53;1.83;;;;;;;19.29;nan;95882.22;3528770;40;20477;-72
2021/06/21 07:13:17;;;;;;;9.77;1.40;;;;;;;19.28;nan;95886.69;3516826;40;20935;-73
2021/06/21 07:15:45;;;;;;;9.10;1.30;;;;;;;19.48;nan;95884.41;3522570;40;20449;-73
2021/06/21 07:18:13;;;;;;;8.60;1.27;;;;;;;19.19;nan;95877.16;3528466;40;20442;-73
2021/06/21 07:20:42;;;;;;;6.93;1.73;;;;;;;19.19;nan;95878.97;3527461;40;20855;-73
2021/06/21 07:23:10;;;;;;;10.13;2.30;;;;;;;19.56;nan;95883.50;3529546;40;20476;-73
2021/06/21 07:25:38;;;;;;;7.40;1.90;;;;;;;19.74;nan;95886.69;3527661;40;20479;-72
2021/06/21 07:28:06;;;;;;;9.90;1.50;;;;;;;19.79;nan;95874.72;3530221;40;21096;-73
2021/06/21 07:30:35;;;;;;;7.37;2.30;;;;;;;19.91;nan;95882.03;3520040;40;20452;-74
2021/06/21 07:33:03;;;;;;;9.13;1.77;;;;;;;20.21;nan;95876.78;3519580;40;20722;-72
2021/06/21 07:35:31;;;;;;;9.03;1.40;;;;;;;20.10;nan;95887.84;3521512;40;20469;-71
2021/06/21 07:38:00;;;;;;;12.33;1.63;;;;;;;20.23;nan;95888.06;3520117;40;20476;-73
2021/06/21 07:40:28;;;;;;;31.60;17.33;;;;;;;19.84;nan;95882.97;3531022;40;20833;-73
2021/06/21 07:42:56;;;;;;;4.97;1.30;;;;;;;19.86;nan;95878.31;3529693;40;20768;-72
2021/06/21 07:45:24;;;;;;;11.33;2.33;;;;;;;19.82;nan;95885.81;3530299;40;20842;-73
2021/06/21 07:47:54;;;;;;;6.47;2.20;;;;;;;20.04;nan;95891.25;3529031;40;20481;-72
2021/06/21 07:50:22;;;;;;;5.00;1.40;;;;;;;19.85;nan;95885.41;3518955;40;20480;-72
2021/06/21 07:52:50;;;;;;;11.20;1.93;;;;;;;20.34;nan;95860.97;3517413;40;20993;-74
2021/06/21 07:55:20;;;;;;;6.40;1.40;;;;;;;20.57;nan;95881.34;3521247;40;20921;-74
2021/06/21 07:57:48;;;;;;;9.97;1.77;;;;;;;20.97;nan;95878.34;3528960;40;20487;-74
2021/06/21 08:00:18;;;;;;;9.43;1.57;;;;;;;21.15;nan;95884.09;3516420;40;20936;-75
2021/06/21 08:02:46;;;;;;;6.77;1.80;;;;;;;21.01;nan;95879.63;3518054;40;20715;-72
2021/06/21 08:05:14;;;;;;;7.13;1.80;;;;;;;21.19;nan;95881.84;3530713;40;20869;-73
2021/06/21 08:07:43;;;;;;;7.03;2.10;;;;;;;20.96;nan;95888.19;3528137;40;20465;-72
2021/06/21 08:10:12;;;;;;;11.33;1.93;;;;;;;21.33;nan;95894.31;3527880;40;20461;-74
2021/06/21 08:12:42;;;;;;;6.73;1.37;;;;;;;21.14;nan;95887.75;3529299;40;20448;-72
2021/06/21 08:15:12;;;;;;;5.37;2.23;;;;;;;21.20;nan;95894.97;3527756;40;20450;-73
2021/06/21 08:17:40;;;;;;;7.47;2.03;;;;;;;20.78;nan;95899.22;3528215;40;20538;-72
2021/06/21 08:20:11;;;;;;;8.97;1.93;;;;;;;21.90;nan;95889.91;3521800;40;20548;-74
2021/06/21 08:22:39;;;;;;;6.20;1.57;;;;;;;21.44;nan;95890.31;3529892;40;20803;-73
2021/06/21 08:25:09;;;;;;;8.10;1.70;;;;;;;21.63;nan;95889.69;3529371;40;20932;-74
2021/06/21 08:27:37;;;;;;;4.83;1.20;;;;;;;21.37;nan;95887.59;3531860;40;20838;-72
2021/06/21 08:30:09;;;;;;;6.97;1.40;;;;;;;21.64;nan;95894.00;3529607;40;20812;-73
2021/06/21 08:32:39;;;;;;;5.80;1.40;;;;;;;22.04;nan;95888.16;3513068;40;20704;-73
2021/06/21 08:35:08;;;;;;;8.33;1.90;;;;;;;21.91;nan;95871.06;3521509;40;20771;-73
2021/06/21 08:37:36;;;;;;;6.50;1.33;;;;;;;21.78;nan;95896.75;3533073;40;20960;-71
2021/06/21 08:40:06;;;;;;;4.20;1.30;;;;;;;21.91;nan;95903.06;3520349;40;20860;-73
2021/06/21 08:42:36;;;;;;;8.63;1.43;;;;;;;21.53;nan;95905.16;3531412;40;20471;-72
2021/06/21 08:45:05;;;;;;;7.77;1.30;;;;;;;21.62;nan;95903.19;3529872;40;20893;-73
2021/06/21 08:47:34;;;;;;;7.60;1.90;;;;;;;22.12;nan;95896.81;3530966;40;21089;-73
2021/06/21 08:50:05;;;;;;;6.20;1.40;;;;;;;22.04;nan;95901.50;3528576;40;20848;-73
2021/06/21 08:52:33;;;;;;;6.67;1.50;;;;;;;22.57;nan;95906.38;3530529;40;20449;-73
2021/06/21 08:55:04;;;;;;;3.63;1.20;;;;;;;22.74;nan;95906.84;3530634;40;20511;-72
2021/06/21 08:57:33;;;;;;;5.07;1.83;;;;;;;22.53;nan;95897.94;3531318;40;20727;-72
2021/06/21 09:00:02;;;;;;;8.83;1.60;;;;;;;23.40;nan;95901.75;3531933;40;21147;-73
2021/06/21 09:02:30;;;;;;;29.90;16.03;;;;;;;22.97;nan;95896.66;3529769;40;20461;-75
2021/06/21 09:05:00;;;;;;;7.43;1.80;;;;;;;23.24;nan;95894.13;3530009;40;20869;-74
2021/06/21 09:07:29;;;;;;;8.23;2.20;;;;;;;23.02;nan;95891.59;3530063;40;20834;-72
2021/06/21 09:09:59;;;;;;;3.20;1.60;;;;;;;23.23;nan;95892.50;3529876;40;20477;-72
2021/06/21 09:12:29;;;;;;;12.00;1.90;;;;;;;22.83;nan;95892.31;3528345;40;20446;-73
2021/06/21 09:14:58;;;;;;;8.30;1.80;;;;;;;23.47;nan;95891.09;3524933;40;21141;-73
2021/06/21 09:17:31;;;;;;;2.80;1.23;;;;;;;23.91;nan;95889.69;3532707;40;20819;-74
2021/06/21 09:20:03;;;;;;;4.13;1.20;;;;;;;24.08;nan;95882.06;3528710;40;20468;-73
2021/06/21 09:22:33;;;;;;;9.70;1.83;;;;;;;23.18;nan;95889.59;3517687;40;20465;-74
2021/06/21 09:25:06;;;;;;;3.43;1.10;;;;;;;23.62;nan;95883.72;3521517;40;20467;-73
2021/06/21 09:27:34;;;;;;;9.10;1.50;;;;;;;23.37;nan;95890.66;3521574;40;20982;-73
2021/06/21 09:30:05;;;;;;;8.53;1.47;;;;;;;24.08;nan;95882.06;3529929;40;20857;-74
2021/06/21 09:32:42;;;;;;;2.83;1.37;;;;;;;23.83;nan;95887.22;3531316;40;20839;-72
2021/06/21 09:35:34;;;;;;;2.60;1.30;;;;;;;23.63;nan;95892.53;3530239;40;20855;-71
2021/06/21 09:38:05;;;;;;;8.30;1.67;;;;;;;23.98;nan;95889.69;3529110;40;20944;-73
2021/06/21 09:40:35;;;;;;;3.53;1.13;;;;;;;24.31;nan;95892.34;3530659;40;20857;-72
2021/06/21 09:43:20;;;;;;;5.97;1.33;;;;;;;24.39;nan;95888.63;3530792;40;20707;-73
2021/06/21 09:46:13;;;;;;;9.03;1.27;;;;;;;24.52;nan;95896.66;3532542;40;20489;-72
2021/06/21 09:48:44;;;;;;;6.40;1.20;;;;;;;24.46;nan;95884.91;3529471;40;21149;-72
2021/06/21 09:51:35;;;;;;;2.10;1.37;;;;;;;24.88;nan;95891.78;3528738;40;20461;-73
2021/06/21 09:54:06;;;;;;;4.90;1.30;;;;;;;25.10;nan;95894.97;3516412;40;20477;-73
2021/06/21 09:56:41;;;;;;;4.27;1.67;;;;;;;25.09;nan;95894.16;3533284;40;20449;-73
2021/06/21 09:59:24;;;;;;;4.80;1.37;;;;;;;25.50;nan;95900.97;3532403;40;20554;-72
2021/06/21 10:02:07;;;;;;;9.73;1.63;;;;;;;25.34;nan;95907.63;3531070;40;20754;-73
2021/06/21 10:04:38;;;;;;;8.17;1.60;;;;;;;24.98;nan;95898.31;3528803;40;20917;-72
2021/06/21 10:07:27;;;;;;;5.03;1.70;;;;;;;25.88;nan;95899.25;3528026;40;20829;-72
2021/06/21 10:09:57;;;;;;;2.70;1.10;;;;;;;25.91;nan;95898.81;3519784;40;20792;-72
2021/06/21 10:12:25;;;;;;;7.93;1.20;;;;;;;25.10;nan;95900.34;3519961;40;20942;-72
2021/06/21 10:14:53;;;;;;;12.20;1.17;;;;;;;27.13;nan;95893.66;3529006;40;20792;-73
2021/06/21 10:17:21;;;;;;;5.37;1.50;;;;;;;27.15;nan;95891.56;3520189;40;20477;-73
2021/06/21 10:19:49;;;;;;;3.57;1.60;;;;;;;26.58;nan;95890.97;3516446;40;20577;-73
2021/06/21 10:22:21;;;;;;;3.20;1.70;;;;;;;27.20;nan;95885.50;3517813;40;20481;-73
2021/06/21 10:24:51;;;;;;;9.20;1.77;;;;;;;28.05;nan;95871.03;3530383;40;20465;-73
2021/06/21 10:27:21;;;;;;;6.40;1.37;;;;;;;27.46;nan;95880.81;3531227;40;20450;-73
2021/06/21 10:29:50;;;;;;;8.97;1.43;;;;;;;26.49;nan;95868.97;3532655;40;20565;-73
2021/06/21 10:32:19;;;;;;;6.13;3.23;;;;;;;26.78;nan;95880.03;3531088;40;20652;-73
2021/06/21 10:34:49;;;;;;;9.13;2.13;;;;;;;27.01;nan;95877.47;3523180;40;20688;-73
2021/06/21 10:37:21;;;;;;;3.77;1.40;;;;;;;27.32;nan;95875.63;3532411;40;20567;-74
2021/06/21 10:39:55;;;;;;;7.33;1.53;;;;;;;27.96;nan;95878.59;3528431;40;20461;-73
2021/06/21 10:42:28;;;;;;;4.10;1.03;;;;;;;28.61;nan;95881.44;3529804;40;20850;-74
2021/06/21 10:44:58;;;;;;;3.53;1.47;;;;;;;27.97;nan;95871.34;3528797;40;20502;-75
2021/06/21 10:47:29;;;;;;;4.80;1.60;;;;;;;27.16;nan;95876.25;3530200;40;20460;-74
2021/06/21 10:50:00;;;;;;;4.70;1.20;;;;;;;27.35;nan;95882.44;3528002;40;20571;-75
2021/06/21 10:52:41;;;;;;;4.40;1.80;;;;;;;28.03;nan;95878.50;3521831;40;20458;-74
2021/06/21 10:55:43;;;;;;;4.80;1.30;;;;;;;27.64;nan;95878.06;3532173;40;20596;-74
2021/06/21 10:58:45;;;;;;;4.33;1.47;;;;;;;28.02;nan;95878.75;3518017;40;20576;-73
2021/06/21 11:01:16;;;;;;;4.60;1.40;;;;;;;28.62;nan;95891.97;3521728;40;20462;-74
2021/06/21 11:03:45;;;;;;;2.40;1.47;;;;;;;29.20;nan;95892.88;3521704;40;20457;-74
2021/06/21 11:06:39;;;;;;;4.33;1.33;;;;;;;28.73;nan;95898.38;3519408;40;20454;-73
2021/06/21 11:09:10;;;;;;;1.70;1.10;;;;;;;28.78;nan;95902.00;3518211;40;20529;-73
2021/06/21 11:11:48;;;;;;;2.90;1.10;;;;;;;28.97;nan;95899.13;3521209;40;20730;-74
2021/06/21 11:14:27;;;;;;;3.00;1.00;;;;;;;29.30;nan;95895.78;3517094;40;20474;-74
2021/06/21 11:17:18;;;;;;;2.40;0.90;;;;;;;29.06;nan;95902.28;3519027;40;20550;-73
2021/06/21 11:19:46;;;;;;;1.87;0.90;;;;;;;29.15;nan;95898.19;3517961;40;20820;-74
2021/06/21 11:22:15;;;;;;;5.37;1.10;;;;;;;28.55;nan;95896.66;3516852;40;20972;-73
2021/06/21 11:24:58;;;;;;;4.00;1.20;;;;;;;29.14;nan;95901.94;3518840;40;20564;-74
2021/06/21 11:27:39;;;;;;;2.00;1.10;;;;;;;29.84;nan;95903.50;3518905;40;20446;-74
2021/06/21 11:30:29;;;;;;;2.40;0.97;;;;;;;30.72;nan;95894.88;3520913;40;20477;-74
2021/06/21 11:33:00;;;;;;;1.60;1.00;;;;;;;31.65;nan;95900.28;3516634;40;20836;-74
2021/06/21 11:35:59;;;;;;;1.73;0.90;;;;;;;30.97;nan;95901.69;3520937;40;20482;-74
2021/06/21 11:38:35;;;;;;;1.83;1.00;;;;;;;29.66;nan;95909.94;3523154;40;20853;-74
2021/06/21 11:41:26;;;;;;;3.10;1.10;;;;;;;29.60;nan;95905.50;3521314;40;20855;-74
2021/06/21 11:43:58;;;;;;;5.73;1.10;;;;;;;29.58;nan;95904.94;3518152;40;20462;-74
2021/06/21 11:46:37;;;;;;;2.60;1.10;;;;;;;28.81;nan;95908.78;3520120;40;20576;-74
2021/06/21 11:49:06;;;;;;;2.23;1.20;;;;;;;29.65;nan;95892.09;3517393;40;20466;-74
2021/06/21 11:51:34;;;;;;;3.93;1.23;;;;;;;30.20;nan;95901.38;3520815;40;20835;-74
2021/06/21 11:54:04;;;;;;;5.60;1.33;;;;;;;30.55;nan;95895.72;3525999;40;20454;-74
2021/06/21 11:56:36;;;;;;;6.10;0.80;;;;;;;30.53;nan;95878.94;3526474;40;20791;-73
2021/06/21 11:59:04;;;;;;;4.40;1.23;;;;;;;29.96;nan;95898.03;3530410;40;20485;-75
2021/06/21 12:01:32;;;;;;;2.30;1.20;;;;;;;30.52;nan;95901.63;3528984;40;20457;-74
2021/06/21 12:04:03;;;;;;;4.63;1.03;;;;;;;29.30;nan;95889.56;3530087;40;20877;-74
2021/06/21 12:06:31;;;;;;;6.70;1.60;;;;;;;31.45;nan;95889.25;3531749;40;21094;-74